createdAt,value
2022-10-18T00:00:57.245Z,7.62
2022-10-18T00:03:25.928Z,7.62
2022-10-18T00:05:54.222Z,7.45
2022-10-18T00:08:22.486Z,7.35
2022-10-18T00:10:51.013Z,7.36
2022-10-18T00:13:19.563Z,7.37
2022-10-18T00:15:53.565Z,7.69
2022-10-18T00:18:22.296Z,7.74
2022-10-18T00:20:59.305Z,7.66
2022-10-18T00:23:28.518Z,7.56
2022-10-18T00:26:08.059Z,7.21
2022-10-18T00:28:37.372Z,7.11
2022-10-18T00:31:15.109Z,7.33
2022-10-18T00:33:44.399Z,7.29
2022-10-18T00:36:13.049Z,7.23
2022-10-18T00:38:41.769Z,7.45
2022-10-18T00:41:12.067Z,7.58
2022-10-18T00:43:54.426Z,7.41
2022-10-18T00:46:24.044Z,7.47
2022-10-18T00:51:23.924Z,7.44
2022-10-18T00:53:52.626Z,7.19
2022-10-18T00:56:20.633Z,7.20
2022-10-18T00:58:50.344Z,7.29
2022-10-18T01:01:18.434Z,7.39
2022-10-18T01:03:48.198Z,7.30
2022-10-18T01:06:16.232Z,7.31
2022-10-18T01:08:58.471Z,7.38
2022-10-18T01:11:45.364Z,7.20
2022-10-18T01:14:23.659Z,7.12
2022-10-18T01:16:57.251Z,7.17
2022-10-18T01:19:53.930Z,7.00
2022-10-18T01:22:28.527Z,6.77
2022-10-18T01:25:08.097Z,6.86
2022-10-18T01:27:58.326Z,6.87
2022-10-18T01:30:45.256Z,6.74
2022-10-18T01:33:26.726Z,6.76
2022-10-18T01:36:00.884Z,6.78
2022-10-18T01:38:32.607Z,7.07
2022-10-18T01:41:02.810Z,6.63
2022-10-18T01:43:33.055Z,6.10
2022-10-18T01:46:04.553Z,6.85
2022-10-18T01:48:33.589Z,6.53
2022-10-18T01:51:01.480Z,6.49
2022-10-18T01:53:32.313Z,6.43
2022-10-18T01:56:22.173Z,6.58
2022-10-18T01:58:58.228Z,6.65
2022-10-18T02:01:38.662Z,6.65
2022-10-18T02:04:14.103Z,6.76
2022-10-18T02:06:46.416Z,6.75
2022-10-18T02:09:20.286Z,6.70
2022-10-18T02:11:52.563Z,6.61
2022-10-18T02:14:21.653Z,6.32
2022-10-18T02:16:54.146Z,6.42
2022-10-18T02:19:29.885Z,6.31
2022-10-18T02:21:59.596Z,6.53
2022-10-18T02:24:34.653Z,6.56
2022-10-18T02:27:03.336Z,6.55
2022-10-18T02:29:32.968Z,6.51
2022-10-18T02:32:07.343Z,6.43
2022-10-18T02:34:41.873Z,6.54
2022-10-18T02:37:11.814Z,6.59
2022-10-18T02:39:44.732Z,6.49
2022-10-18T02:42:13.485Z,6.23
2022-10-18T02:44:41.645Z,6.27
2022-10-18T02:47:12.102Z,6.33
2022-10-18T02:49:40.090Z,6.17
2022-10-18T02:52:08.225Z,5.79
2022-10-18T02:54:36.241Z,5.74
2022-10-18T02:57:04.224Z,6.05
2022-10-18T02:59:32.143Z,6.05
2022-10-18T03:02:00.031Z,6.05
2022-10-18T03:04:29.457Z,6.19
2022-10-18T03:06:57.488Z,6.42
2022-10-18T03:09:25.811Z,6.41
2022-10-18T03:11:53.802Z,6.30
2022-10-18T03:14:21.796Z,6.21
2022-10-18T03:16:50.315Z,5.95
2022-10-18T03:19:18.354Z,5.91
2022-10-18T03:21:47.784Z,6.08
2022-10-18T03:24:15.902Z,6.03
2022-10-18T03:26:44.275Z,6.10
2022-10-18T03:29:12.681Z,6.29
2022-10-18T03:31:40.906Z,6.43
2022-10-18T03:34:08.940Z,6.22
2022-10-18T03:36:38.598Z,6.18
2022-10-18T03:39:08.111Z,5.75
2022-10-18T03:41:36.382Z,5.64
2022-10-18T03:44:04.408Z,5.89
2022-10-18T03:46:32.592Z,6.02
2022-10-18T03:49:00.670Z,5.96
2022-10-18T03:51:28.715Z,6.07
2022-10-18T03:53:56.677Z,5.88
2022-10-18T03:56:26.162Z,5.76
2022-10-18T03:58:54.359Z,5.79
2022-10-18T04:01:22.610Z,6.02
2022-10-18T04:03:50.644Z,5.77
2022-10-18T04:06:18.696Z,5.82
2022-10-18T04:08:46.654Z,5.74
2022-10-18T04:11:14.798Z,5.86
2022-10-18T04:13:44.270Z,5.76
2022-10-18T04:16:12.658Z,5.85
2022-10-18T04:18:40.726Z,5.91
2022-10-18T04:21:08.640Z,5.80
2022-10-18T04:23:38.755Z,5.76
2022-10-18T04:26:07.555Z,5.95
2022-10-18T04:28:39.977Z,5.87
2022-10-18T04:31:10.337Z,5.88
2022-10-18T04:33:38.376Z,5.73
2022-10-18T04:36:06.558Z,5.83
2022-10-18T04:38:34.846Z,5.65
2022-10-18T04:41:02.774Z,5.61
2022-10-18T04:43:31.029Z,5.44
2022-10-18T04:45:59.449Z,5.67
2022-10-18T04:48:29.553Z,5.71
2022-10-18T04:50:57.483Z,5.53
2022-10-18T04:53:25.673Z,5.75
2022-10-18T04:55:53.907Z,5.86
2022-10-18T04:58:22.132Z,6.08
2022-10-18T05:00:50.847Z,5.97
2022-10-18T05:03:19.378Z,6.01
2022-10-18T05:06:04.189Z,5.90
2022-10-18T05:08:33.892Z,6.01
2022-10-18T05:11:02.335Z,6.03
2022-10-18T05:13:31.015Z,5.96
2022-10-18T05:16:00.342Z,5.86
2022-10-18T05:18:29.047Z,5.96
2022-10-18T05:20:58.645Z,6.19
2022-10-18T05:23:27.113Z,6.38
2022-10-18T05:25:55.677Z,6.55
2022-10-18T05:28:41.135Z,6.44
2022-10-18T05:31:11.499Z,6.27
2022-10-18T05:33:39.600Z,6.56
2022-10-18T05:36:09.859Z,6.39
2022-10-18T05:38:42.265Z,6.44
2022-10-18T05:41:11.030Z,6.58
2022-10-18T05:43:39.510Z,6.54
2022-10-18T05:46:13.733Z,6.46
2022-10-18T05:48:43.621Z,6.61
2022-10-18T05:51:13.616Z,6.47
2022-10-18T05:53:41.583Z,6.78
2022-10-18T05:56:11.818Z,6.94
2022-10-18T05:58:40.832Z,6.97
2022-10-18T06:01:09.918Z,6.99
2022-10-18T06:03:37.967Z,6.99
2022-10-18T06:06:08.389Z,6.90
2022-10-18T06:08:39.210Z,7.08
2022-10-18T06:11:08.896Z,7.17
2022-10-18T06:13:41.992Z,7.08
2022-10-18T06:16:10.571Z,7.08
2022-10-18T06:18:39.128Z,7.01
2022-10-18T06:21:07.730Z,6.63
2022-10-18T06:23:38.490Z,7.16
2022-10-18T06:26:08.084Z,7.19
2022-10-18T06:28:38.024Z,7.22
2022-10-18T06:31:07.251Z,7.40
2022-10-18T06:33:36.890Z,7.59
2022-10-18T06:36:06.744Z,7.59
2022-10-18T06:38:35.717Z,7.59
2022-10-18T06:41:06.570Z,7.78
2022-10-18T06:43:34.880Z,7.77
2022-10-18T06:46:05.236Z,7.82
2022-10-18T06:48:33.558Z,7.80
2022-10-18T06:51:03.413Z,7.75
2022-10-18T06:53:33.555Z,7.91
2022-10-18T06:56:02.176Z,7.93
2022-10-18T06:58:32.437Z,8.05
2022-10-18T07:01:00.939Z,8.28
2022-10-18T07:03:29.495Z,8.35
2022-10-18T07:06:01.522Z,8.58
2022-10-18T07:08:30.213Z,8.73
2022-10-18T07:10:58.553Z,8.92
2022-10-18T07:13:32.431Z,9.01
2022-10-18T07:16:04.418Z,9.12
2022-10-18T07:18:33.350Z,9.23
2022-10-18T07:21:03.252Z,9.33
2022-10-18T07:23:33.115Z,9.49
2022-10-18T07:26:02.285Z,9.18
2022-10-18T07:28:31.450Z,9.35
2022-10-18T07:31:07.842Z,9.38
2022-10-18T07:33:38.065Z,9.44
2022-10-18T07:36:08.597Z,9.57
2022-10-18T07:38:36.825Z,9.59
2022-10-18T07:41:07.610Z,9.90
2022-10-18T07:43:36.257Z,9.90
2022-10-18T07:46:06.165Z,10.23
2022-10-18T07:48:35.634Z,10.13
2022-10-18T07:51:04.386Z,10.06
2022-10-18T07:53:34.570Z,10.45
2022-10-18T07:56:07.218Z,10.55
2022-10-18T07:58:37.461Z,10.80
2022-10-18T08:01:06.511Z,11.01
2022-10-18T08:03:36.451Z,11.11
2022-10-18T08:06:08.236Z,11.36
2022-10-18T08:08:37.505Z,11.39
2022-10-18T08:11:07.446Z,11.36
2022-10-18T08:13:35.415Z,11.49
2022-10-18T08:16:05.008Z,11.81
2022-10-18T08:18:33.277Z,11.96
2022-10-18T08:21:03.585Z,12.17
2022-10-18T08:23:31.679Z,12.34
2022-10-18T08:26:03.592Z,12.43
2022-10-18T08:28:32.031Z,12.36
2022-10-18T08:31:04.531Z,12.48
2022-10-18T08:33:32.516Z,12.52
2022-10-18T08:36:05.818Z,12.67
2022-10-18T08:38:34.218Z,12.74
2022-10-18T08:41:16.089Z,12.86
2022-10-18T08:43:52.105Z,12.86
2022-10-18T08:46:20.231Z,13.05
2022-10-18T08:48:51.409Z,13.09
2022-10-18T08:51:30.385Z,13.32
2022-10-18T08:54:05.269Z,13.14
2022-10-18T08:56:35.066Z,13.18
2022-10-18T08:59:04.296Z,13.57
2022-10-18T09:01:46.143Z,13.75
2022-10-18T09:04:39.477Z,13.92
2022-10-18T09:07:40.220Z,13.95
2022-10-18T09:10:20.891Z,13.67
2022-10-18T09:13:04.242Z,14.06
2022-10-18T09:15:46.886Z,14.21
2022-10-18T09:18:29.707Z,14.36
2022-10-18T09:20:59.688Z,14.45
2022-10-18T09:23:40.491Z,14.27
2022-10-18T09:26:16.142Z,14.55
2022-10-18T09:28:53.461Z,14.52
2022-10-18T09:31:27.484Z,14.51
2022-10-18T09:33:59.399Z,14.83
2022-10-18T09:36:35.426Z,15.05
2022-10-18T09:39:12.210Z,15.16
2022-10-18T09:41:45.927Z,15.31
2022-10-18T09:44:20.645Z,15.24
2022-10-18T09:46:54.376Z,15.37
2022-10-18T09:49:26.837Z,15.52
2022-10-18T09:51:55.610Z,15.66
2022-10-18T09:54:33.126Z,15.69
2022-10-18T09:57:05.938Z,15.89
2022-10-18T09:59:42.557Z,16.07
2022-10-18T10:02:15.097Z,16.13
2022-10-18T10:04:43.464Z,16.10
2022-10-18T10:07:15.794Z,16.31
2022-10-18T10:09:49.909Z,16.35
2022-10-18T10:12:29.714Z,16.42
2022-10-18T10:15:10.072Z,16.43
2022-10-18T10:17:38.209Z,16.51
2022-10-18T10:20:17.760Z,16.51
2022-10-18T10:22:48.085Z,16.67
2022-10-18T10:25:28.173Z,16.65
2022-10-18T10:27:56.308Z,16.62
2022-10-18T10:30:29.547Z,16.89
2022-10-18T10:32:58.693Z,16.81
2022-10-18T10:38:31.274Z,17.14
2022-10-18T10:41:01.113Z,17.02
2022-10-18T10:43:37.529Z,17.16
2022-10-18T10:46:09.706Z,17.04
2022-10-18T10:48:47.744Z,16.98
2022-10-18T10:51:18.215Z,17.07
2022-10-18T10:53:52.620Z,17.01
2022-10-18T10:56:28.277Z,16.84
2022-10-18T10:58:59.492Z,16.76
2022-10-18T11:01:33.314Z,16.81
2022-10-18T11:04:03.418Z,16.70
2022-10-18T11:06:39.270Z,16.80
2022-10-18T11:09:16.702Z,17.00
2022-10-18T11:11:57.917Z,17.22
2022-10-18T11:14:31.511Z,17.44
2022-10-18T11:17:08.528Z,17.44
2022-10-18T11:19:45.868Z,17.16
2022-10-18T11:22:20.368Z,16.96
2022-10-18T11:24:48.944Z,17.18
2022-10-18T11:27:26.541Z,17.40
2022-10-18T11:30:13.829Z,17.67
2022-10-18T11:32:52.233Z,17.90
2022-10-18T11:35:40.485Z,18.01
2022-10-18T11:38:24.003Z,18.26
2022-10-18T11:41:05.162Z,18.37
2022-10-18T11:44:01.140Z,18.55
2022-10-18T11:46:52.123Z,18.44
2022-10-18T11:49:36.911Z,18.32
2022-10-18T11:52:12.797Z,18.31
2022-10-18T11:55:06.227Z,18.34
2022-10-18T11:57:44.919Z,18.53
2022-10-18T12:00:39.338Z,18.56
2022-10-18T12:03:23.704Z,18.77
2022-10-18T12:05:53.740Z,18.88
2022-10-18T12:08:26.663Z,18.89
2022-10-18T12:11:06.406Z,18.72
2022-10-18T12:13:42.516Z,18.95
2022-10-18T12:16:12.962Z,19.04
2022-10-18T12:21:25.453Z,19.23
2022-10-18T12:23:57.675Z,19.12
2022-10-18T12:26:28.491Z,19.17
2022-10-18T12:29:06.981Z,19.16
2022-10-18T12:31:41.654Z,18.96
2022-10-18T12:34:27.289Z,18.68
2022-10-18T12:37:08.521Z,19.11
2022-10-18T12:40:08.616Z,19.29
2022-10-18T12:42:34.472Z,19.31
2022-10-18T12:45:04.316Z,19.49
2022-10-18T12:47:34.775Z,19.57
2022-10-18T12:50:06.619Z,19.47
2022-10-18T12:52:37.074Z,19.54
2022-10-18T12:55:30.352Z,19.56
2022-10-18T12:58:05.216Z,19.74
2022-10-18T13:00:56.264Z,19.83
2022-10-18T13:03:56.329Z,19.91
2022-10-18T13:06:25.113Z,19.89
2022-10-18T13:09:16.994Z,19.17
2022-10-18T13:11:44.976Z,19.18
2022-10-18T13:14:59.079Z,19.56
2022-10-18T13:17:43.502Z,19.76
2022-10-18T13:20:27.378Z,19.60
2022-10-18T13:23:11.402Z,19.57
2022-10-18T13:25:53.687Z,19.30
2022-10-18T13:28:32.173Z,19.13
2022-10-18T13:31:10.559Z,19.22
2022-10-18T13:33:41.622Z,19.50
2022-10-18T13:36:23.685Z,18.95
2022-10-18T13:39:06.014Z,19.26
2022-10-18T13:41:57.467Z,19.53
2022-10-18T13:44:30.482Z,19.51
2022-10-18T13:47:34.364Z,19.50
2022-10-18T13:50:17.822Z,19.56
2022-10-18T13:53:16.939Z,19.46
2022-10-18T13:56:13.267Z,19.39
2022-10-18T13:59:05.856Z,19.44
2022-10-18T14:01:50.660Z,19.42
2022-10-18T14:04:40.196Z,19.30
2022-10-18T14:07:10.066Z,19.29
2022-10-18T14:09:51.076Z,18.69
2022-10-18T14:12:30.060Z,19.16
2022-10-18T14:15:04.633Z,18.98
2022-10-18T14:17:41.026Z,19.11
2022-10-18T14:20:24.755Z,19.02
2022-10-18T14:23:04.052Z,19.07
2022-10-18T14:25:36.941Z,19.01
2022-10-18T14:28:12.655Z,18.58
2022-10-18T14:30:53.946Z,18.81
2022-10-18T14:33:40.678Z,18.75
2022-10-18T14:36:14.536Z,18.69
2022-10-18T14:38:51.483Z,18.56
2022-10-18T14:41:24.031Z,18.55
2022-10-18T14:43:53.690Z,18.48
2022-10-18T14:46:28.026Z,18.44
2022-10-18T14:49:01.440Z,18.37
2022-10-18T14:51:34.588Z,18.47
2022-10-18T14:54:03.829Z,18.30
2022-10-18T14:56:39.866Z,17.34
2022-10-18T14:59:18.414Z,18.37
2022-10-18T15:01:57.342Z,18.34
2022-10-18T15:04:33.311Z,18.22
2022-10-18T15:07:04.650Z,18.26
2022-10-18T15:09:36.051Z,18.23
2022-10-18T15:12:09.186Z,18.09
2022-10-18T15:14:39.565Z,17.95
2022-10-18T15:17:17.071Z,17.89
2022-10-18T15:19:59.362Z,17.97
2022-10-18T15:22:32.833Z,17.78
2022-10-18T15:25:17.740Z,17.84
2022-10-18T15:27:52.425Z,17.75
2022-10-18T15:30:27.762Z,17.67
2022-10-18T15:32:58.406Z,17.64
2022-10-18T15:35:29.930Z,17.57
2022-10-18T15:38:02.551Z,17.43
2022-10-18T15:40:38.009Z,17.41
2022-10-18T15:43:23.336Z,17.34
2022-10-18T15:45:53.078Z,17.28
2022-10-18T15:48:23.974Z,17.20
2022-10-18T15:50:53.955Z,17.09
2022-10-18T15:53:33.291Z,16.62
2022-10-18T15:56:04.473Z,17.01
2022-10-18T15:58:40.561Z,16.96
2022-10-18T16:01:17.389Z,16.89
2022-10-18T16:03:46.735Z,16.85
2022-10-18T16:06:18.229Z,16.81
2022-10-18T16:08:48.346Z,16.72
2022-10-18T16:11:18.490Z,16.67
2022-10-18T16:13:48.113Z,16.57
2022-10-18T16:16:19.830Z,16.32
2022-10-18T16:18:47.958Z,16.32
2022-10-18T16:21:21.272Z,16.31
2022-10-18T16:23:49.826Z,16.29
2022-10-18T16:26:19.268Z,16.21
2022-10-18T16:28:50.405Z,16.07
2022-10-18T16:31:20.669Z,16.06
2022-10-18T16:33:50.183Z,16.03
2022-10-18T16:36:21.107Z,16.01
2022-10-18T16:38:50.118Z,15.99
2022-10-18T16:41:19.071Z,15.92
2022-10-18T16:43:49.956Z,15.77
2022-10-18T16:46:20.223Z,15.68
2022-10-18T16:48:49.604Z,15.60
2022-10-18T16:51:18.594Z,15.47
2022-10-18T16:53:47.439Z,15.37
2022-10-18T16:56:18.302Z,15.23
2022-10-18T16:58:48.303Z,15.18
2022-10-18T17:01:18.755Z,15.10
2022-10-18T17:03:47.865Z,14.95
2022-10-18T17:06:17.892Z,14.83
2022-10-18T17:08:46.484Z,14.56
2022-10-18T17:11:15.975Z,14.58
2022-10-18T17:13:44.577Z,14.51
2022-10-18T17:16:24.340Z,14.58
2022-10-18T17:18:52.574Z,14.58
2022-10-18T17:21:20.919Z,14.49
2022-10-18T17:23:49.109Z,14.52
2022-10-18T17:26:28.506Z,14.42
2022-10-18T17:28:59.603Z,14.53
2022-10-18T17:31:29.269Z,14.49
2022-10-18T17:33:58.730Z,14.44
2022-10-18T17:36:27.589Z,14.28
2022-10-18T17:38:56.704Z,14.32
2022-10-18T17:41:24.719Z,14.23
2022-10-18T17:43:52.930Z,14.14
2022-10-18T17:46:21.453Z,14.09
2022-10-18T17:48:51.309Z,14.07
2022-10-18T17:51:19.511Z,14.03
2022-10-18T17:53:47.926Z,13.98
2022-10-18T17:56:17.458Z,13.81
2022-10-18T17:58:46.918Z,13.66
2022-10-18T18:01:17.358Z,13.57
2022-10-18T18:03:47.808Z,13.42
2022-10-18T18:06:22.321Z,13.40
2022-10-18T18:08:51.518Z,13.40
2022-10-18T18:11:20.431Z,13.36
2022-10-18T18:13:48.990Z,13.09
2022-10-18T18:16:20.302Z,13.04
2022-10-18T18:18:51.470Z,12.65
2022-10-18T18:21:21.698Z,12.88
2022-10-18T18:23:50.908Z,12.76
2022-10-18T18:26:20.122Z,12.79
2022-10-18T18:28:48.505Z,12.72
2022-10-18T18:31:18.599Z,12.70
2022-10-18T18:33:47.175Z,12.47
2022-10-18T18:36:15.167Z,12.30
2022-10-18T18:38:44.879Z,11.98
2022-10-18T18:41:15.000Z,11.76
2022-10-18T18:43:47.580Z,11.61
2022-10-18T18:46:15.796Z,11.49
2022-10-18T18:48:44.067Z,11.00
2022-10-18T18:51:14.509Z,10.82
2022-10-18T18:53:45.493Z,11.27
2022-10-18T18:56:15.422Z,11.47
2022-10-18T18:58:45.410Z,11.32
2022-10-18T19:01:17.297Z,11.36
2022-10-18T19:03:46.206Z,11.27
2022-10-18T19:06:16.848Z,11.42
2022-10-18T19:08:47.195Z,11.31
2022-10-18T19:11:18.111Z,11.21
2022-10-18T19:13:47.123Z,11.39
2022-10-18T19:16:25.024Z,11.33
2022-10-18T19:18:58.829Z,10.84
2022-10-18T19:21:28.432Z,10.97
2022-10-18T19:23:58.614Z,10.95
2022-10-18T19:26:30.110Z,10.66
2022-10-18T19:29:02.876Z,10.24
2022-10-18T19:31:31.368Z,10.37
2022-10-18T19:34:00.203Z,10.46
2022-10-18T19:36:29.313Z,10.22
2022-10-18T19:38:59.470Z,10.07
2022-10-18T19:41:28.822Z,10.47
2022-10-18T19:43:57.406Z,10.24
2022-10-18T19:46:26.141Z,10.12
2022-10-18T19:48:54.420Z,9.97
2022-10-18T19:51:27.720Z,10.23
2022-10-18T19:53:56.721Z,10.36
2022-10-18T19:56:28.168Z,10.09
2022-10-18T19:58:57.269Z,10.37
2022-10-18T20:01:26.189Z,10.19
2022-10-18T20:03:55.027Z,10.35
2022-10-18T20:06:23.763Z,10.23
2022-10-18T20:08:52.366Z,10.23
2022-10-18T20:11:22.536Z,9.60
2022-10-18T20:13:52.424Z,9.54
2022-10-18T20:16:27.690Z,9.55
2022-10-18T20:18:58.084Z,9.77
2022-10-18T20:21:28.292Z,9.83
2022-10-18T20:23:56.992Z,9.29
2022-10-18T20:26:25.806Z,9.86
2022-10-18T20:28:58.512Z,9.72
2022-10-18T20:31:28.325Z,9.91
2022-10-18T20:33:57.997Z,9.91
2022-10-18T20:36:26.832Z,10.03
2022-10-18T20:38:55.242Z,10.00
2022-10-18T20:41:25.194Z,9.68
2022-10-18T20:43:55.366Z,9.71
2022-10-18T20:46:24.009Z,9.93
2022-10-18T20:48:53.478Z,9.66
2022-10-18T20:51:22.616Z,9.65
2022-10-18T20:53:51.996Z,9.74
2022-10-18T20:56:22.635Z,9.26
2022-10-18T20:58:52.033Z,9.10
2022-10-18T21:01:23.200Z,9.48
2022-10-18T21:03:52.517Z,9.53
2022-10-18T21:06:22.943Z,9.57
2022-10-18T21:08:54.780Z,9.51
2022-10-18T21:11:23.453Z,9.51
2022-10-18T21:13:52.556Z,9.42
2022-10-18T21:16:23.014Z,9.33
2022-10-18T21:18:51.263Z,9.38
2022-10-18T21:21:23.059Z,9.39
2022-10-18T21:23:52.302Z,9.28
2022-10-18T21:26:22.691Z,9.48
2022-10-18T21:28:51.408Z,9.43
2022-10-18T21:31:22.646Z,9.22
2022-10-18T21:33:55.373Z,9.32
2022-10-18T21:36:24.205Z,9.23
2022-10-18T21:38:53.038Z,9.22
2022-10-18T21:41:23.038Z,9.17
2022-10-18T21:43:52.809Z,9.33
2022-10-18T21:46:24.303Z,9.32
2022-10-18T21:48:54.119Z,9.38
2022-10-18T21:51:23.877Z,9.39
2022-10-18T21:53:53.348Z,9.38
2022-10-18T21:56:23.043Z,9.36
2022-10-18T21:58:51.415Z,9.23
2022-10-18T22:01:23.046Z,9.26
2022-10-18T22:03:52.658Z,9.06
2022-10-18T22:06:21.386Z,9.21
2022-10-18T22:08:51.670Z,9.32
2022-10-18T22:11:22.372Z,9.17
2022-10-18T22:13:50.715Z,9.03
2022-10-18T22:16:18.850Z,9.05
2022-10-18T22:18:49.525Z,8.99
2022-10-18T22:21:19.742Z,8.80
2022-10-18T22:23:49.705Z,8.76
2022-10-18T22:26:24.031Z,8.87
2022-10-18T22:28:56.528Z,8.78
2022-10-18T22:31:26.607Z,8.66
2022-10-18T22:33:57.361Z,8.45
2022-10-18T22:36:27.869Z,8.47
2022-10-18T22:38:56.452Z,8.54
2022-10-18T22:41:24.992Z,8.74
2022-10-18T22:43:55.533Z,8.59
2022-10-18T22:46:26.115Z,8.54
2022-10-18T22:48:54.608Z,8.77
2022-10-18T22:51:24.173Z,8.71
2022-10-18T22:53:52.585Z,8.75
2022-10-18T22:56:23.542Z,8.67
2022-10-18T22:58:51.931Z,8.80
2022-10-18T23:01:22.552Z,8.71
2022-10-18T23:03:54.236Z,8.49
2022-10-18T23:06:26.223Z,8.37
2022-10-18T23:08:56.211Z,8.70
2022-10-18T23:11:24.994Z,8.61
2022-10-18T23:13:53.785Z,8.46
2022-10-18T23:16:22.190Z,8.39
2022-10-18T23:18:52.138Z,8.44
2022-10-18T23:21:21.346Z,8.36
2022-10-18T23:23:51.168Z,8.39
2022-10-18T23:26:21.290Z,8.41
2022-10-18T23:28:51.324Z,8.41
2022-10-18T23:31:21.390Z,7.78
2022-10-18T23:33:52.568Z,8.06
2022-10-18T23:36:21.387Z,7.79
2022-10-18T23:38:51.425Z,7.77
2022-10-18T23:41:20.678Z,8.01
2022-10-18T23:43:49.312Z,8.07
2022-10-18T23:46:18.720Z,8.16
2022-10-18T23:48:47.623Z,8.14
2022-10-18T23:51:16.898Z,8.10
2022-10-18T23:53:44.976Z,7.93
2022-10-18T23:56:16.728Z,7.95
2022-10-18T23:58:45.882Z,7.65
